| time (UTC) | temp F | wind direction | speed knots | gust knots | rain 1hr in | rain 24hr in | rain mn in | humidity % | barometer mb |
| 20260510190554 | 71 | 286 | 3.5 | 4.3 | 0.00 | 0.00 | 0.00 | 52 | 1016.6 |
| 20260510190052 | 71 | 324 | 1.7 | 2.6 | 0.00 | 0.00 | 0.00 | 52 | 1016.7 |
| 20260510185548 | 71 | 326 | 2.6 | 2.6 | 0.00 | 0.00 | 0.00 | 52 | 1016.5 |
| 20260510185045 | 70 | 279 | 3.5 | 4.3 | 0.00 | 0.00 | 0.00 | 52 | 1016.6 |
| 20260510184543 | 70 | 294 | 4.3 | 5.2 | 0.00 | 0.00 | 0.00 | 50 | 1016.6 |
| 20260510184038 | 70 | 279 | 2.6 | 2.6 | 0.00 | 0.00 | 0.00 | 52 | 1016.6 |
| 20260510183533 | 70 | 295 | 2.6 | 2.6 | 0.00 | 0.00 | 0.00 | 52 | 1016.4 |
| 20260510183028 | 70 | 292 | 0.9 | 0.9 | 0.00 | 0.00 | 0.00 | 50 | 1016.4 |
| 20260510182526 | 72 | 264 | 6.1 | 7.8 | 0.00 | 0.00 | 0.00 | 48 | 1016.6 |
| 20260510182021 | 72 | 274 | 2.6 | 2.6 | 0.00 | 0.00 | 0.00 | 49 | 1016.2 |
| 20260510181519 | 72 | 314 | 3.5 | 4.3 | 0.00 | 0.00 | 0.00 | 50 | 1016.2 |
| 20260510181014 | 72 | 307 | 1.7 | 2.6 | 0.00 | 0.00 | 0.00 | 49 | 1016.5 |
| 20260510180512 | 72 | 276 | 2.6 | 2.6 | 0.00 | 0.00 | 0.00 | 49 | 1016.4 |
| 20260510180010 | 71 | 296 | 2.6 | 2.6 | 0.00 | 0.00 | 0.00 | 47 | 1016.5 |
| 20260510175504 | 73 | 293 | 7.8 | 8.7 | 0.00 | 0.00 | 0.00 | 47 | 1016.7 |
| 20260510175001 | 72 | 281 | 4.3 | 5.2 | 0.00 | 0.00 | 0.00 | 48 | 1016.7 |
| 20260510174459 | 72 | 345 | 2.6 | 4.3 | 0.00 | 0.00 | 0.00 | 49 | 1016.5 |
| 20260510173955 | 72 | 280 | 0.9 | 1.7 | 0.00 | 0.00 | 0.00 | 48 | 1016.4 |
| 20260510173451 | 72 | 282 | 3.5 | 4.3 | 0.00 | 0.00 | 0.00 | 49 | 1016.5 |
| 20260510172948 | 71 | 292 | 1.7 | 1.7 | 0.00 | 0.00 | 0.00 | 48 | 1016.5 |
| 20260510172443 | 72 | 285 | 4.3 | 5.2 | 0.00 | 0.00 | 0.00 | 48 | 1016.7 |
| 20260510171940 | 72 | 286 | 2.6 | 4.3 | 0.00 | 0.00 | 0.00 | 49 | 1016.8 |
| 20260510171437 | 71 | 287 | 2.6 | 2.6 | 0.00 | 0.00 | 0.00 | 51 | 1016.9 |
| 20260510170934 | 71 | 257 | 3.5 | 4.3 | 0.00 | 0.00 | 0.00 | 49 | 1016.8 |
| 20260510170430 | 71 | 286 | 4.3 | 6.1 | 0.00 | 0.00 | 0.00 | 49 | 1017.0 |
| 20260510165926 | 71 | 309 | 1.7 | 1.7 | 0.00 | 0.00 | 0.00 | 53 | 1017.0 |
| 20260510165422 | 71 | 316 | 1.7 | 2.6 | 0.00 | 0.00 | 0.00 | 52 | 1017.2 |
| 20260510164919 | 71 | 304 | 1.7 | 1.7 | 0.00 | 0.00 | 0.00 | 50 | 1017.1 |
| 20260510164416 | 71 | 303 | 3.5 | 4.3 | 0.00 | 0.00 | 0.00 | 49 | 1017.4 |
| 20260510163911 | 71 | 279 | 2.6 | 2.6 | 0.00 | 0.00 | 0.00 | 53 | 1017.5 |
| 20260510163408 | 70 | 246 | 4.3 | 5.2 | 0.00 | 0.00 | 0.00 | 52 | 1017.1 |
| 20260510162907 | 70 | 275 | 7.0 | 9.6 | 0.00 | 0.00 | 0.00 | 53 | 1017.1 |
| 20260510162405 | 69 | 322 | 2.6 | 2.6 | 0.00 | 0.00 | 0.00 | 56 | 1017.5 |
| 20260510161901 | 69 | 299 | 6.1 | 7.0 | 0.00 | 0.00 | 0.00 | 55 | 1017.2 |
| 20260510161356 | 70 | 265 | 3.5 | 4.3 | 0.00 | 0.00 | 0.00 | 54 | 1017.2 |
| 20260510160853 | 70 | 283 | 2.6 | 2.6 | 0.00 | 0.00 | 0.00 | 56 | 1017.2 |
| 20260510160351 | 68 | 318 | 2.6 | 4.3 | 0.00 | 0.00 | 0.00 | 55 | 1017.2 |
| 20260510155844 | 68 | 313 | 2.6 | 2.6 | 0.00 | 0.00 | 0.00 | 57 | 1017.4 |
| 20260510155341 | 69 | 292 | 4.3 | 5.2 | 0.00 | 0.00 | 0.00 | 56 | 1017.5 |
| 20260510154837 | 68 | 306 | 4.3 | 5.2 | 0.00 | 0.00 | 0.00 | 56 | 1017.5 |
| 20260510154333 | 68 | 308 | 3.5 | 4.3 | 0.00 | 0.00 | 0.00 | 57 | 1017.4 |
| 20260510153828 | 68 | 288 | 6.1 | 7.0 | 0.00 | 0.00 | 0.00 | 59 | 1017.4 |
| 20260510153324 | 68 | 305 | 1.7 | 2.6 | 0.00 | 0.00 | 0.00 | 60 | 1017.2 |
| 20260510152821 | 68 | 283 | 3.5 | 4.3 | 0.00 | 0.00 | 0.00 | 60 | 1017.2 |
| 20260510152318 | 68 | 339 | 2.6 | 2.6 | 0.00 | 0.00 | 0.00 | 60 | 1017.4 |
| 20260510151814 | 69 | 293 | 1.7 | 2.6 | 0.00 | 0.00 | 0.00 | 61 | 1017.4 |
| 20260510151312 | 68 | 313 | 1.7 | 1.7 | 0.00 | 0.00 | 0.00 | 59 | 1017.2 |
| 20260510150808 | 68 | 290 | 4.3 | 6.1 | 0.00 | 0.00 | 0.00 | 60 | 1017.6 |
| 20260510150303 | 67 | 284 | 4.3 | 6.1 | 0.00 | 0.00 | 0.00 | 61 | 1017.4 |
| 20260510145800 | 66 | 277 | 1.7 | 2.6 | 0.00 | 0.00 | 0.00 | 62 | 1017.2 |
| 20260510145257 | 66 | 284 | 2.6 | 2.6 | 0.00 | 0.00 | 0.00 | 61 | 1017.4 |
| 20260510144753 | 66 | 295 | 4.3 | 5.2 | 0.00 | 0.00 | 0.00 | 62 | 1017.2 |
| 20260510144250 | 66 | 306 | 2.6 | 2.6 | 0.00 | 0.00 | 0.00 | 63 | 1017.4 |
| 20260510143749 | 66 | 315 | 5.2 | 6.1 | 0.00 | 0.00 | 0.00 | 64 | 1017.5 |
| 20260510143246 | 66 | 286 | 4.3 | 5.2 | 0.00 | 0.00 | 0.00 | 63 | 1016.8 |
| 20260510142743 | 65 | 296 | 3.5 | 4.3 | 0.00 | 0.00 | 0.00 | 65 | 1017.0 |
| 20260510142239 | 66 | 284 | 2.6 | 2.6 | 0.00 | 0.00 | 0.00 | 66 | 1016.9 |
| 20260510141737 | 65 | 327 | 2.6 | 2.6 | 0.00 | 0.00 | 0.00 | 67 | 1017.0 |
| 20260510141235 | 65 | 294 | 1.7 | 1.7 | 0.00 | 0.00 | 0.00 | 66 | 1017.0 |
| 20260510140731 | 64 | 300 | 2.6 | 2.6 | 0.00 | 0.00 | 0.00 | 67 | 1017.0 |
| 20260510140226 | 64 | 301 | 0.9 | 1.7 | 0.00 | 0.00 | 0.00 | 68 | 1016.9 |
| 20260510135720 | 64 | 314 | 3.5 | 4.3 | 0.00 | 0.00 | 0.00 | 68 | 1017.1 |
| 20260510135216 | 63 | 290 | 1.7 | 1.7 | 0.00 | 0.00 | 0.00 | 68 | 1017.0 |
| 20260510134714 | 63 | 292 | 2.6 | 2.6 | 0.00 | 0.00 | 0.00 | 70 | 1017.2 |
| 20260510134211 | 63 | 307 | 1.7 | 1.7 | 0.00 | 0.00 | 0.00 | 71 | 1017.0 |
| 20260510133706 | 62 | 297 | 1.7 | 1.7 | 0.00 | 0.00 | 0.00 | 71 | 1016.9 |
| 20260510133202 | 62 | 310 | 4.3 | 5.2 | 0.00 | 0.00 | 0.00 | 71 | 1017.4 |
| 20260510132659 | 61 | 299 | 1.7 | 2.6 | 0.00 | 0.00 | 0.00 | 72 | 1017.0 |
| 20260510132156 | 61 | 297 | 1.7 | 1.7 | 0.00 | 0.00 | 0.00 | 72 | 1017.0 |
| 20260510131654 | 60 | 278 | 2.6 | 2.6 | 0.00 | 0.00 | 0.00 | 73 | 1016.8 |
| 20260510131151 | 60 | 281 | 3.5 | 4.3 | 0.00 | 0.00 | 0.00 | 74 | 1017.0 |
| 20260510130647 | 60 | 317 | 0.9 | 1.7 | 0.00 | 0.00 | 0.00 | 74 | 1017.0 |
| 20260510130144 | 60 | 302 | 1.7 | 1.7 | 0.00 | 0.00 | 0.00 | 75 | 1017.0 |
| 20260510125641 | 60 | 308 | 2.6 | 2.6 | 0.00 | 0.00 | 0.00 | 75 | 1017.0 |
| 20260510125137 | 59 | 298 | 4.3 | 4.3 | 0.00 | 0.00 | 0.00 | 76 | 1017.2 |
| 20260510124634 | 59 | 315 | 0.9 | 1.7 | 0.00 | 0.00 | 0.00 | 77 | 1017.0 |
| 20260510124131 | 59 | 288 | 2.6 | 2.6 | 0.00 | 0.00 | 0.00 | 77 | 1017.1 |
| 20260510123626 | 59 | 294 | 2.6 | 2.6 | 0.00 | 0.00 | 0.00 | 79 | 1017.0 |
| 20260510123123 | 58 | 310 | 2.6 | 2.6 | 0.00 | 0.00 | 0.00 | 79 | 1017.2 |
| 20260510122619 | 58 | 301 | 0.9 | 1.7 | 0.00 | 0.00 | 0.00 | 80 | 1017.4 |
| 20260510122114 | 57 | 305 | 1.7 | 1.7 | 0.00 | 0.00 | 0.00 | 80 | 1017.0 |
| 20260510121612 | 57 | 306 | 1.7 | 1.7 | 0.00 | 0.00 | 0.00 | 81 | 1017.0 |
| 20260510121109 | 57 | 305 | 0.9 | 0.9 | 0.00 | 0.00 | 0.00 | 82 | 1016.9 |
| 20260510120607 | 57 | 300 | 0.9 | 1.7 | 0.00 | 0.00 | 0.00 | 82 | 1016.6 |
| 20260510115559 | 56 | 299 | 0.9 | 0.9 | 0.00 | 0.00 | 0.00 | 83 | 1016.6 |
| 20260510115056 | 55 | 302 | 0.9 | 0.9 | 0.00 | 0.00 | 0.00 | 84 | 1016.8 |
| 20260510114551 | 55 | 300 | 0.0 | 0.0 | 0.00 | 0.00 | 0.00 | 85 | 1016.5 |
| 20260510114048 | 55 | 301 | 0.0 | 0.9 | 0.00 | 0.00 | 0.00 | 86 | 1016.4 |
| 20260510113543 | 54 | 302 | 0.9 | 0.9 | 0.00 | 0.00 | 0.00 | 87 | 1016.2 |
| 20260510113041 | 54 | 302 | 0.0 | 0.9 | 0.00 | 0.00 | 0.00 | 87 | 1016.1 |
| 20260510112537 | 54 | 306 | 0.0 | 0.9 | 0.00 | 0.00 | 0.00 | 88 | 1016.1 |
| 20260510112034 | 53 | 304 | 0.0 | 0.0 | 0.00 | 0.00 | 0.00 | 89 | 1016.0 |
| 20260510111531 | 53 | 306 | 0.0 | 0.0 | 0.00 | 0.00 | 0.00 | 90 | 1016.1 |
| 20260510111027 | 52 | 306 | 0.0 | 0.0 | 0.00 | 0.00 | 0.00 | 91 | 1016.0 |
| 20260510110523 | 52 | 306 | 0.0 | 0.0 | 0.00 | 0.00 | 0.00 | 91 | 1016.0 |
| 20260510110020 | 52 | 306 | 0.0 | 0.0 | 0.00 | 0.00 | 0.00 | 92 | 1016.1 |
| 20260510105515 | 52 | 306 | 0.0 | 0.0 | 0.00 | 0.00 | 0.00 | 92 | 1016.1 |
| 20260510105010 | 52 | 306 | 0.0 | 0.0 | 0.00 | 0.00 | 0.00 | 92 | 1015.9 |
| 20260510104507 | 52 | 306 | 0.9 | 0.9 | 0.00 | 0.00 | 0.00 | 92 | 1015.9 |
| 20260510104003 | 52 | 306 | 0.0 | 0.9 | 0.00 | 0.00 | 0.00 | 93 | 1015.7 |
| 20260510103500 | 52 | 306 | 0.9 | 0.9 | 0.00 | 0.00 | 0.00 | 93 | 1015.6 |
| 20260510102956 | 52 | 307 | 0.9 | 0.9 | 0.00 | 0.00 | 0.00 | 93 | 1015.6 |
| 20260510102452 | 52 | 307 | 0.0 | 0.0 | 0.00 | 0.00 | 0.00 | 93 | 1015.7 |
| 20260510101948 | 52 | 307 | 0.0 | 0.0 | 0.00 | 0.00 | 0.00 | 93 | 1015.5 |
| 20260510101446 | 52 | 307 | 0.0 | 0.9 | 0.00 | 0.00 | 0.00 | 93 | 1015.3 |
| 20260510100945 | 52 | 307 | 0.9 | 0.9 | 0.00 | 0.00 | 0.00 | 93 | 1015.3 |
| 20260510100440 | 52 | 307 | 0.0 | 0.0 | 0.00 | 0.00 | 0.00 | 93 | 1015.2 |
| 20260510095937 | 52 | 307 | 0.0 | 0.0 | 0.00 | 0.00 | 0.00 | 93 | 1015.0 |
| 20260510095432 | 52 | 307 | 0.9 | 0.9 | 0.00 | 0.00 | 0.00 | 93 | 1015.2 |
| 20260510094932 | 52 | 308 | 0.9 | 0.9 | 0.00 | 0.00 | 0.00 | 93 | 1015.2 |
| 20260510094426 | 52 | 306 | 0.9 | 1.7 | 0.00 | 0.00 | 0.00 | 93 | 1015.1 |
| 20260510093923 | 52 | 307 | 0.9 | 0.9 | 0.00 | 0.00 | 0.00 | 93 | 1015.0 |
| 20260510093418 | 52 | 306 | 0.0 | 0.0 | 0.00 | 0.00 | 0.00 | 93 | 1014.9 |
| 20260510092915 | 52 | 306 | 0.9 | 0.9 | 0.00 | 0.00 | 0.00 | 93 | 1014.9 |
| 20260510092413 | 52 | 295 | 1.7 | 1.7 | 0.00 | 0.00 | 0.00 | 93 | 1015.2 |
| 20260510091913 | 52 | 305 | 0.0 | 0.9 | 0.00 | 0.00 | 0.00 | 93 | 1014.8 |
| 20260510091410 | 51 | 298 | 0.0 | 0.0 | 0.00 | 0.00 | 0.00 | 94 | 1014.9 |
| 20260510090906 | 51 | 299 | 0.0 | 0.0 | 0.00 | 0.00 | 0.00 | 94 | 1014.8 |
| 20260510090403 | 51 | 297 | 0.0 | 0.0 | 0.00 | 0.00 | 0.00 | 94 | 1014.6 |
| 20260510085859 | 51 | 296 | 0.0 | 0.0 | 0.00 | 0.00 | 0.00 | 94 | 1014.6 |
| 20260510085354 | 51 | 295 | 0.0 | 0.0 | 0.00 | 0.00 | 0.00 | 94 | 1014.5 |
| 20260510084849 | 51 | 294 | 0.0 | 0.0 | 0.00 | 0.00 | 0.00 | 95 | 1014.5 |
| 20260510084348 | 51 | 289 | 0.0 | 0.0 | 0.00 | 0.00 | 0.00 | 97 | 1014.5 |
| 20260510083844 | 50 | 290 | 0.0 | 0.0 | 0.00 | 0.00 | 0.00 | 97 | 1014.3 |
| 20260510083340 | 50 | 290 | 0.0 | 0.0 | 0.00 | 0.00 | 0.00 | 98 | 1014.3 |
| 20260510082836 | 49 | 301 | 0.0 | 0.0 | 0.00 | 0.00 | 0.00 | 99 | 1014.5 |
| 20260510082333 | 48 | 32 | 0.0 | 0.0 | 0.00 | 0.00 | 0.00 | 98 | 1014.2 |
| 20260510081832 | 48 | 32 | 0.0 | 0.0 | 0.00 | 0.00 | 0.00 | 98 | 1014.3 |
| 20260510081328 | 48 | 32 | 0.0 | 0.0 | 0.00 | 0.00 | 0.00 | 98 | 1014.5 |
| 20260510080825 | 48 | 32 | 0.0 | 0.0 | 0.00 | 0.00 | 0.00 | 98 | 1013.9 |
| 20260510080319 | 48 | 32 | 0.0 | 0.0 | 0.00 | 0.00 | 0.00 | 98 | 1014.1 |
| 20260510075817 | 48 | 35 | 0.0 | 0.0 | 0.00 | 0.00 | 0.00 | 98 | 1014.2 |
| 20260510075314 | 48 | 35 | 0.0 | 0.0 | 0.00 | 0.00 | 0.00 | 98 | 1014.3 |
| 20260510074811 | 49 | 35 | 0.0 | 0.0 | 0.00 | 0.00 | 0.00 | 98 | 1014.2 |
| 20260510074308 | 49 | 35 | 0.0 | 0.0 | 0.00 | 0.00 | 0.00 | 98 | 1014.5 |
| 20260510073803 | 49 | 36 | 0.0 | 0.0 | 0.00 | 0.00 | 0.00 | 98 | 1014.2 |
| 20260510073300 | 49 | 56 | 0.0 | 0.0 | 0.00 | 0.00 | 0.00 | 98 | 1014.3 |
| 20260510072755 | 49 | 72 | 0.0 | 0.0 | 0.00 | 0.00 | 0.00 | 98 | 1014.3 |
| 20260510072252 | 49 | 118 | 0.0 | 0.0 | 0.00 | 0.00 | 0.00 | 98 | 1014.0 |
| 20260510071749 | 48 | 88 | 0.0 | 0.0 | 0.00 | 0.00 | 0.00 | 98 | 1014.2 |
| 20260510071246 | 48 | 78 | 0.0 | 0.0 | 0.00 | 0.00 | 0.00 | 98 | 1014.2 |
| 20260510070744 | 48 | 57 | 0.0 | 0.0 | 0.00 | 0.00 | 0.00 | 98 | 1014.3 |
| 20260510070241 | 49 | 56 | 0.0 | 0.0 | 0.00 | 0.00 | 0.00 | 98 | 1014.2 |
| 20260510065735 | 49 | 59 | 0.9 | 0.9 | 0.00 | 0.00 | 0.00 | 97 | 1014.1 |
| 20260510065232 | 49 | 76 | 0.0 | 0.9 | 0.00 | 0.00 | 0.00 | 97 | 1014.0 |
| 20260510064728 | 49 | 85 | 0.9 | 1.7 | 0.00 | 0.00 | 0.00 | 97 | 1014.3 |
| 20260510064226 | 49 | 109 | 1.7 | 1.7 | 0.00 | 0.00 | 0.00 | 97 | 1013.9 |
| 20260510063722 | 49 | 49 | 0.0 | 0.0 | 0.00 | 0.00 | 0.00 | 97 | 1014.1 |
| 20260510063219 | 49 | 27 | 0.0 | 0.0 | 0.00 | 0.00 | 0.00 | 96 | 1014.1 |
| 20260510062716 | 50 | 25 | 0.0 | 0.0 | 0.00 | 0.00 | 0.00 | 96 | 1013.9 |
| 20260510062212 | 50 | 21 | 0.0 | 0.0 | 0.00 | 0.00 | 0.00 | 96 | 1013.9 |
| 20260510061707 | 50 | 22 | 0.0 | 0.0 | 0.00 | 0.00 | 0.00 | 96 | 1014.1 |
| 20260510061204 | 50 | 23 | 0.0 | 0.0 | 0.00 | 0.00 | 0.00 | 96 | 1013.9 |
| 20260510060701 | 50 | 25 | 0.0 | 0.0 | 0.00 | 0.00 | 0.00 | 96 | 1014.0 |
| 20260510060157 | 50 | 23 | 0.0 | 0.0 | 0.00 | 0.00 | 0.00 | 96 | 1014.1 |
| 20260510055653 | 50 | 23 | 0.0 | 0.0 | 0.00 | 0.00 | 0.00 | 96 | 1014.1 |
| 20260510055152 | 50 | 23 | 0.0 | 0.0 | 0.00 | 0.00 | 0.00 | 95 | 1014.1 |
| 20260510054647 | 50 | 22 | 0.0 | 0.0 | 0.00 | 0.00 | 0.00 | 96 | 1014.1 |
| 20260510054143 | 49 | 22 | 0.0 | 0.0 | 0.00 | 0.00 | 0.00 | 95 | 1014.1 |
| 20260510053642 | 49 | 24 | 0.0 | 0.0 | 0.00 | 0.00 | 0.00 | 95 | 1014.2 |
| 20260510053139 | 50 | 24 | 0.0 | 0.0 | 0.00 | 0.00 | 0.00 | 95 | 1014.1 |
| 20260510052635 | 50 | 24 | 0.0 | 0.0 | 0.00 | 0.00 | 0.00 | 95 | 1014.1 |
| 20260510052131 | 50 | 24 | 0.0 | 0.0 | 0.00 | 0.00 | 0.00 | 95 | 1014.1 |
| 20260510051627 | 50 | 24 | 0.0 | 0.0 | 0.00 | 0.00 | 0.00 | 94 | 1014.0 |
| 20260510051124 | 50 | 24 | 0.0 | 0.0 | 0.00 | 0.00 | 0.00 | 94 | 1014.1 |
| 20260510050621 | 50 | 24 | 0.0 | 0.0 | 0.00 | 0.00 | 0.00 | 94 | 1014.5 |
| 20260510050118 | 50 | 24 | 0.0 | 0.0 | 0.00 | 0.00 | 0.00 | 94 | 1014.2 |
| 20260510045615 | 50 | 24 | 0.0 | 0.0 | 0.00 | 0.00 | 0.00 | 93 | 1014.3 |
| 20260510045111 | 50 | 24 | 0.0 | 0.0 | 0.00 | 0.00 | 0.00 | 93 | 1014.3 |
| 20260510044608 | 51 | 25 | 0.0 | 0.0 | 0.00 | 0.00 | 0.00 | 92 | 1014.0 |
| 20260510044105 | 51 | 321 | 0.0 | 0.0 | 0.00 | 0.00 | 0.00 | 91 | 1014.1 |
| 20260510043600 | 52 | 312 | 0.0 | 0.0 | 0.00 | 0.00 | 0.00 | 90 | 1013.9 |
| 20260510043057 | 52 | 310 | 0.9 | 0.9 | 0.00 | 0.00 | 0.00 | 89 | 1014.1 |
| 20260510042555 | 52 | 343 | 0.0 | 0.0 | 0.00 | 0.00 | 0.00 | 91 | 1013.9 |
| 20260510042051 | 52 | 344 | 0.0 | 0.0 | 0.00 | 0.00 | 0.00 | 91 | 1014.2 |
| 20260510041548 | 51 | 6 | 0.0 | 0.0 | 0.00 | 0.00 | 0.00 | 92 | 1014.1 |
| 20260510041046 | 51 | 6 | 0.0 | 0.0 | 0.00 | 0.00 | 0.00 | 91 | 1014.0 |
| 20260510040542 | 51 | 6 | 0.0 | 0.0 | 0.00 | 0.00 | 0.00 | 91 | 1014.1 |
| 20260510040038 | 51 | 6 | 0.0 | 0.0 | 0.00 | 0.02 | 0.02 | 91 | 1014.1 |
| 20260510035535 | 51 | 6 | 0.0 | 0.0 | 0.00 | 0.02 | 0.02 | 91 | 1013.9 |
| 20260510035034 | 51 | 6 | 0.0 | 0.0 | 0.00 | 0.02 | 0.02 | 90 | 1014.0 |
| 20260510034533 | 51 | 6 | 0.0 | 0.0 | 0.00 | 0.02 | 0.02 | 89 | 1014.2 |
| 20260510034029 | 51 | 7 | 0.0 | 0.0 | 0.00 | 0.02 | 0.02 | 89 | 1014.0 |
| 20260510033525 | 51 | 276 | 0.0 | 0.0 | 0.00 | 0.02 | 0.02 | 89 | 1014.0 |
| 20260510033023 | 51 | 274 | 0.0 | 0.0 | 0.00 | 0.02 | 0.02 | 88 | 1013.9 |
| 20260510032519 | 51 | 274 | 0.0 | 0.0 | 0.00 | 0.02 | 0.02 | 88 | 1014.1 |
| 20260510032015 | 52 | 274 | 0.0 | 0.0 | 0.00 | 0.02 | 0.02 | 87 | 1013.9 |
| 20260510031510 | 52 | 274 | 0.0 | 0.0 | 0.00 | 0.02 | 0.02 | 87 | 1014.1 |
| 20260510031006 | 52 | 274 | 0.0 | 0.0 | 0.00 | 0.02 | 0.02 | 86 | 1014.0 |
| 20260510030502 | 53 | 274 | 0.0 | 0.0 | 0.00 | 0.02 | 0.02 | 85 | 1014.1 |
| 20260510025959 | 53 | 274 | 0.0 | 0.0 | 0.00 | 0.02 | 0.02 | 84 | 1014.1 |
| 20260510025456 | 53 | 274 | 0.0 | 0.0 | 0.00 | 0.02 | 0.02 | 84 | 1014.2 |
| 20260510024954 | 53 | 273 | 0.0 | 0.0 | 0.00 | 0.02 | 0.02 | 84 | 1014.2 |
| 20260510024450 | 54 | 267 | 0.0 | 0.0 | 0.00 | 0.02 | 0.02 | 83 | 1013.9 |
| 20260510023946 | 54 | 285 | 0.0 | 0.0 | 0.00 | 0.02 | 0.02 | 82 | 1014.5 |
| 20260510023442 | 55 | 303 | 0.0 | 0.0 | 0.00 | 0.02 | 0.02 | 81 | 1014.2 |
| 20260510022939 | 55 | 303 | 0.0 | 0.0 | 0.00 | 0.02 | 0.02 | 80 | 1014.0 |
| 20260510022438 | 56 | 303 | 0.0 | 0.0 | 0.00 | 0.02 | 0.02 | 79 | 1013.9 |
| 20260510021938 | 56 | 303 | 0.0 | 0.0 | 0.00 | 0.02 | 0.02 | 78 | 1013.5 |
| 20260510021436 | 57 | 303 | 0.0 | 0.0 | 0.00 | 0.02 | 0.02 | 77 | 1013.6 |
| 20260510020933 | 57 | 303 | 0.0 | 0.0 | 0.00 | 0.02 | 0.02 | 77 | 1013.7 |
| 20260510020433 | 57 | 302 | 0.0 | 0.0 | 0.00 | 0.02 | 0.02 | 76 | 1013.5 |
| 20260510015929 | 57 | 302 | 0.0 | 0.0 | 0.00 | 0.02 | 0.02 | 76 | 1013.4 |
| 20260510015425 | 57 | 303 | 0.9 | 0.9 | 0.00 | 0.02 | 0.02 | 76 | 1013.2 |
| 20260510014920 | 57 | 303 | 0.0 | 0.0 | 0.00 | 0.02 | 0.02 | 75 | 1013.3 |
| 20260510014418 | 57 | 303 | 0.9 | 0.9 | 0.00 | 0.02 | 0.02 | 75 | 1013.2 |
| 20260510013914 | 57 | 303 | 0.9 | 0.9 | 0.00 | 0.02 | 0.02 | 75 | 1012.9 |
| 20260510013409 | 57 | 303 | 0.9 | 1.7 | 0.00 | 0.02 | 0.02 | 74 | 1012.7 |
| 20260510012904 | 57 | 303 | 0.0 | 0.0 | 0.00 | 0.02 | 0.02 | 74 | 1012.6 |
| 20260510012400 | 57 | 304 | 0.9 | 0.9 | 0.00 | 0.02 | 0.02 | 74 | 1012.7 |
| 20260510011854 | 57 | 304 | 0.9 | 0.9 | 0.00 | 0.02 | 0.02 | 73 | 1012.8 |
| 20260510011350 | 58 | 304 | 0.9 | 0.9 | 0.00 | 0.02 | 0.02 | 73 | 1012.5 |
| 20260510010846 | 58 | 303 | 0.9 | 0.9 | 0.00 | 0.02 | 0.02 | 72 | 1012.6 |
| 20260510010344 | 58 | 305 | 0.9 | 1.7 | 0.00 | 0.02 | 0.02 | 72 | 1012.7 |
| 20260510005840 | 58 | 305 | 0.9 | 0.9 | 0.00 | 0.02 | 0.02 | 73 | 1012.5 |
| 20260510005337 | 58 | 309 | 1.7 | 1.7 | 0.00 | 0.02 | 0.02 | 72 | 1012.5 |
| 20260510004834 | 58 | 310 | 0.9 | 0.9 | 0.00 | 0.02 | 0.02 | 71 | 1012.4 |
| 20260510004332 | 59 | 311 | 0.9 | 0.9 | 0.00 | 0.02 | 0.02 | 70 | 1012.4 |
| 20260510003829 | 59 | 311 | 0.9 | 0.9 | 0.00 | 0.02 | 0.02 | 70 | 1012.5 |
| 20260510003326 | 59 | 309 | 0.9 | 0.9 | 0.00 | 0.02 | 0.02 | 69 | 1012.5 |
| 20260510002825 | 59 | 308 | 0.9 | 1.7 | 0.00 | 0.02 | 0.02 | 68 | 1012.2 |
| 20260510002322 | 60 | 306 | 0.9 | 1.7 | 0.00 | 0.02 | 0.02 | 67 | 1012.3 |
| 20260510001818 | 60 | 304 | 0.9 | 0.9 | 0.00 | 0.02 | 0.02 | 67 | 1012.3 |
| 20260510001317 | 60 | 315 | 1.7 | 1.7 | 0.00 | 0.02 | 0.02 | 66 | 1012.5 |
| 20260510000812 | 61 | 314 | 0.9 | 0.9 | 0.00 | 0.02 | 0.02 | 65 | 1012.5 |
| 20260510000311 | 61 | 310 | 0.9 | 0.9 | 0.00 | 0.02 | 0.02 | 65 | 1012.1 |
| 20260509235807 | 61 | 322 | 0.9 | 1.7 | 0.00 | 0.02 | 0.02 | 64 | 1011.9 |
| 20260509235306 | 62 | 300 | 1.7 | 1.7 | 0.00 | 0.02 | 0.02 | 63 | 1012.0 |
| 20260509234759 | 62 | 300 | 1.7 | 1.7 | 0.00 | 0.02 | 0.02 | 63 | 1012.0 |
| 20260509234256 | 62 | 294 | 2.6 | 4.3 | 0.00 | 0.02 | 0.02 | 62 | 1011.9 |
| 20260509233755 | 62 | 298 | 2.6 | 2.6 | 0.00 | 0.02 | 0.02 | 62 | 1011.9 |
| 20260509233252 | 62 | 329 | 2.6 | 4.3 | 0.00 | 0.02 | 0.02 | 62 | 1011.9 |
| 20260509232748 | 62 | 322 | 0.0 | 0.9 | 0.00 | 0.02 | 0.02 | 62 | 1011.8 |
| 20260509232245 | 62 | 314 | 0.9 | 0.9 | 0.00 | 0.02 | 0.02 | 60 | 1011.9 |
| 20260509231741 | 63 | 297 | 2.6 | 2.6 | 0.00 | 0.02 | 0.02 | 61 | 1011.7 |
| 20260509231238 | 63 | 316 | 0.9 | 0.9 | 0.00 | 0.02 | 0.02 | 59 | 1011.7 |
| 20260509230736 | 63 | 296 | 3.5 | 4.3 | 0.00 | 0.02 | 0.02 | 59 | 1011.6 |
| 20260509230233 | 63 | 257 | 2.6 | 2.6 | 0.00 | 0.02 | 0.02 | 58 | 1011.6 |
| 20260509225728 | 63 | 329 | 0.9 | 1.7 | 0.00 | 0.02 | 0.02 | 58 | 1011.6 |
| 20260509225224 | 64 | 304 | 0.9 | 1.7 | 0.00 | 0.02 | 0.02 | 58 | 1011.9 |
| 20260509224720 | 64 | 273 | 2.6 | 2.6 | 0.00 | 0.02 | 0.02 | 56 | 1011.8 |
| 20260509224217 | 64 | 326 | 1.7 | 1.7 | 0.00 | 0.02 | 0.02 | 57 | 1011.7 |
| 20260509223714 | 64 | 321 | 0.9 | 0.9 | 0.00 | 0.02 | 0.02 | 58 | 1011.7 |
| 20260509223211 | 64 | 292 | 1.7 | 1.7 | 0.00 | 0.02 | 0.02 | 55 | 1011.9 |
| 20260509222708 | 64 | 335 | 1.7 | 1.7 | 0.00 | 0.02 | 0.02 | 56 | 1011.9 |
| 20260509222203 | 64 | 317 | 1.7 | 1.7 | 0.00 | 0.02 | 0.02 | 55 | 1011.9 |
| 20260509221659 | 64 | 306 | 2.6 | 2.6 | 0.00 | 0.02 | 0.02 | 56 | 1012.0 |
| 20260509221155 | 64 | 297 | 1.7 | 1.7 | 0.00 | 0.02 | 0.02 | 56 | 1012.0 |
| 20260509220652 | 64 | 288 | 3.5 | 4.3 | 0.00 | 0.02 | 0.02 | 55 | 1012.1 |
| 20260509220148 | 64 | 329 | 1.7 | 1.7 | 0.00 | 0.02 | 0.02 | 55 | 1012.0 |
| 20260509215644 | 64 | 265 | 1.7 | 1.7 | 0.00 | 0.02 | 0.02 | 54 | 1011.9 |
| 20260509215141 | 65 | 312 | 1.7 | 1.7 | 0.00 | 0.02 | 0.02 | 54 | 1011.9 |
| 20260509214638 | 65 | 281 | 1.7 | 1.7 | 0.00 | 0.02 | 0.02 | 52 | 1012.0 |
| 20260509214134 | 64 | 297 | 1.7 | 1.7 | 0.00 | 0.02 | 0.02 | 53 | 1012.1 |
| 20260509213631 | 63 | 305 | 2.6 | 2.6 | 0.00 | 0.02 | 0.02 | 54 | 1012.0 |
| 20260509213127 | 64 | 274 | 2.6 | 2.6 | 0.00 | 0.02 | 0.02 | 56 | 1011.7 |
| 20260509212625 | 64 | 2 | 2.6 | 5.2 | 0.00 | 0.02 | 0.02 | 54 | 1011.8 |
| 20260509212122 | 63 | 291 | 1.7 | 1.7 | 0.00 | 0.02 | 0.02 | 53 | 1011.9 |
| 20260509211617 | 63 | 302 | 2.6 | 2.6 | 0.00 | 0.02 | 0.02 | 54 | 1011.8 |
| 20260509211114 | 63 | 318 | 4.3 | 6.1 | 0.00 | 0.02 | 0.02 | 54 | 1011.8 |
| 20260509210611 | 64 | 277 | 1.7 | 1.7 | 0.00 | 0.02 | 0.02 | 54 | 1011.7 |
| 20260509210108 | 64 | 258 | 2.6 | 2.6 | 0.00 | 0.02 | 0.02 | 53 | 1011.7 |
| 20260509205602 | 64 | 265 | 2.6 | 2.6 | 0.00 | 0.02 | 0.02 | 51 | 1011.4 |
| 20260509205057 | 64 | 314 | 0.9 | 0.9 | 0.00 | 0.02 | 0.02 | 54 | 1011.8 |
| 20260509204554 | 64 | 308 | 1.7 | 1.7 | 0.00 | 0.02 | 0.02 | 52 | 1011.6 |
| 20260509204051 | 64 | 322 | 0.0 | 0.9 | 0.00 | 0.02 | 0.02 | 52 | 1011.4 |
| 20260509203547 | 64 | 295 | 1.7 | 2.6 | 0.00 | 0.02 | 0.02 | 51 | 1011.7 |
| 20260509203045 | 64 | 336 | 1.7 | 1.7 | 0.00 | 0.02 | 0.02 | 53 | 1011.4 |
| 20260509202544 | 64 | 327 | 2.6 | 2.6 | 0.00 | 0.02 | 0.02 | 52 | 1011.3 |
| 20260509202040 | 64 | 320 | 1.7 | 1.7 | 0.00 | 0.02 | 0.02 | 51 | 1011.6 |
| 20260509201536 | 64 | 317 | 1.7 | 1.7 | 0.00 | 0.02 | 0.02 | 49 | 1011.4 |
| 20260509201034 | 64 | 320 | 1.7 | 1.7 | 0.00 | 0.02 | 0.02 | 52 | 1011.2 |
| 20260509200533 | 64 | 295 | 2.6 | 4.3 | 0.00 | 0.02 | 0.02 | 49 | 1011.1 |
| 20260509200030 | 64 | 319 | 1.7 | 1.7 | 0.00 | 0.02 | 0.02 | 52 | 1011.1 |
| 20260509195526 | 64 | 315 | 2.6 | 2.6 | 0.00 | 0.02 | 0.02 | 52 | 1011.3 |
| 20260509195025 | 64 | 295 | 3.5 | 4.3 | 0.00 | 0.02 | 0.02 | 51 | 1011.1 |
| 20260509194520 | 64 | 311 | 7.0 | 7.8 | 0.00 | 0.02 | 0.02 | 49 | 1011.3 |
| 20260509194019 | 64 | 336 | 2.6 | 4.3 | 0.00 | 0.02 | 0.02 | 49 | 1011.2 |
| 20260509193518 | 64 | 288 | 2.6 | 4.3 | 0.00 | 0.02 | 0.02 | 49 | 1011.1 |
| 20260509193016 | 65 | 261 | 4.3 | 5.2 | 0.00 | 0.02 | 0.02 | 48 | 1011.1 |
| 20260509192512 | 65 | 258 | 1.7 | 2.6 | 0.00 | 0.02 | 0.02 | 49 | 1011.1 |
| 20260509192007 | 64 | 273 | 2.6 | 2.6 | 0.00 | 0.02 | 0.02 | 47 | 1010.9 |
| 20260509191502 | 65 | 302 | 4.3 | 5.2 | 0.00 | 0.02 | 0.02 | 47 | 1011.0 |
| 20260509190958 | 65 | 306 | 3.5 | 4.3 | 0.00 | 0.02 | 0.02 | 49 | 1011.2 |